createdAt,value
2018-05-12T00:01:33.549Z,7.20
2018-05-12T00:04:01.880Z,7.57
2018-05-12T00:06:30.962Z,8.03
2018-05-12T00:08:59.289Z,8.10
2018-05-12T00:11:27.592Z,7.17
2018-05-12T00:13:55.929Z,8.37
2018-05-12T00:16:24.232Z,7.40
2018-05-12T00:18:52.550Z,8.47
2018-05-12T00:21:20.867Z,8.10
2018-05-12T00:23:49.166Z,8.03
2018-05-12T00:26:17.476Z,8.10
2018-05-12T00:28:45.772Z,8.20
2018-05-12T00:31:14.084Z,8.13
2018-05-12T00:33:42.364Z,8.20
2018-05-12T00:36:10.685Z,7.33
2018-05-12T00:38:38.968Z,7.80
2018-05-12T00:41:07.299Z,7.90
2018-05-12T00:43:35.577Z,8.07
2018-05-12T00:46:03.909Z,7.70
2018-05-12T00:48:32.197Z,7.20
2018-05-12T00:51:01.294Z,7.77
2018-05-12T00:53:29.597Z,7.60
2018-05-12T00:55:57.908Z,7.80
2018-05-12T00:58:26.199Z,8.33
2018-05-12T01:00:54.521Z,8.10
2018-05-12T01:03:22.820Z,7.70
2018-05-12T01:05:51.132Z,7.23
2018-05-12T01:08:19.417Z,7.33
2018-05-12T01:10:47.735Z,7.80
2018-05-12T01:13:16.033Z,7.00
2018-05-12T01:15:44.452Z,7.10
2018-05-12T01:18:12.863Z,7.67
2018-05-12T01:20:41.201Z,7.77
2018-05-12T01:23:09.539Z,7.33
2018-05-12T01:25:37.913Z,7.47
2018-05-12T01:28:06.237Z,8.33
2018-05-12T01:30:34.582Z,8.70
2018-05-12T01:33:02.876Z,8.23
2018-05-12T01:35:31.196Z,7.63
2018-05-12T01:38:00.240Z,7.87
2018-05-12T01:40:28.565Z,7.83
2018-05-12T01:42:57.655Z,8.00
2018-05-12T01:45:26.734Z,7.33
2018-05-12T01:48:06.520Z,7.77
2018-05-12T01:50:35.589Z,7.87
2018-05-12T01:53:03.869Z,7.77
2018-05-12T01:55:32.983Z,7.37
2018-05-12T01:58:01.273Z,7.47
2018-05-12T02:00:29.583Z,7.63
2018-05-12T02:02:57.874Z,7.80
2018-05-12T02:05:26.197Z,7.50
2018-05-12T02:07:54.494Z,8.03
2018-05-12T02:10:22.801Z,8.20
2018-05-12T02:12:51.092Z,8.40
2018-05-12T02:15:19.425Z,8.73
2018-05-12T02:17:47.703Z,8.70
2018-05-12T02:20:16.041Z,8.07
2018-05-12T02:22:45.108Z,9.23
2018-05-12T02:25:13.416Z,8.57
2018-05-12T02:27:42.485Z,8.47
2018-05-12T02:30:10.805Z,8.87
2018-05-12T02:32:39.104Z,8.73
2018-05-12T02:35:07.396Z,8.10
2018-05-12T02:37:35.715Z,8.37
2018-05-12T02:40:04.776Z,8.50
2018-05-12T02:42:33.105Z,8.77
2018-05-12T02:45:02.167Z,8.63
2018-05-12T02:47:30.492Z,8.93
2018-05-12T02:49:58.777Z,8.53
2018-05-12T02:52:27.090Z,8.33
2018-05-12T02:54:55.380Z,9.40
2018-05-12T02:57:24.492Z,8.17
2018-05-12T02:59:53.556Z,8.83
2018-05-12T03:02:21.872Z,8.30
2018-05-12T03:04:50.157Z,8.00
2018-05-12T03:07:18.489Z,9.23
2018-05-12T03:09:46.764Z,8.83
2018-05-12T03:12:15.090Z,8.80
2018-05-12T03:14:43.388Z,9.17
2018-05-12T03:17:11.723Z,8.97
2018-05-12T03:19:40.018Z,8.90
2018-05-12T03:22:08.360Z,9.30
2018-05-12T03:24:36.681Z,8.90
2018-05-12T03:27:05.021Z,9.03
2018-05-12T03:29:33.318Z,9.37
2018-05-12T03:32:01.628Z,8.83
2018-05-12T03:34:29.916Z,9.40
2018-05-12T03:36:58.232Z,9.93
2018-05-12T03:39:26.522Z,10.23
2018-05-12T03:41:55.612Z,8.23
2018-05-12T03:44:24.705Z,8.50
2018-05-12T03:46:53.808Z,8.73
2018-05-12T03:49:22.101Z,9.40
2018-05-12T03:51:51.181Z,9.77
2018-05-12T03:54:19.456Z,8.87
2018-05-12T03:56:47.772Z,8.90
2018-05-12T03:59:16.048Z,9.23
2018-05-12T04:01:44.356Z,8.77
2018-05-12T04:04:24.567Z,8.30
2018-05-12T04:07:04.648Z,7.97
2018-05-12T04:09:44.784Z,9.53
2018-05-12T04:12:24.892Z,8.70
2018-05-12T04:14:53.195Z,10.43
2018-05-12T04:17:22.295Z,9.13
2018-05-12T04:19:50.598Z,8.43
2018-05-12T04:22:18.919Z,9.43
2018-05-12T04:24:47.227Z,8.97
2018-05-12T04:27:16.309Z,8.87
2018-05-12T04:29:44.633Z,9.40
2018-05-12T04:32:12.916Z,9.73
2018-05-12T04:34:41.234Z,9.37
2018-05-12T04:37:09.530Z,9.13
2018-05-12T04:39:38.618Z,9.57
2018-05-12T04:42:06.900Z,9.77
2018-05-12T04:44:35.975Z,9.47
2018-05-12T04:47:04.276Z,9.30
2018-05-12T04:49:32.661Z,9.10
2018-05-12T04:52:00.894Z,9.97
2018-05-12T04:54:29.207Z,9.60
2018-05-12T04:56:58.272Z,9.93
2018-05-12T04:59:26.604Z,10.97
2018-05-12T05:01:54.929Z,10.37
2018-05-12T05:04:23.241Z,10.37
2018-05-12T05:06:52.297Z,10.17
2018-05-12T05:09:20.617Z,10.47
2018-05-12T05:11:48.908Z,10.80
2018-05-12T05:14:17.224Z,10.90
2018-05-12T05:16:45.522Z,11.63
2018-05-12T05:19:14.633Z,11.63
2018-05-12T05:21:43.696Z,11.23
2018-05-12T05:24:12.008Z,11.67
2018-05-12T05:26:41.084Z,11.30
2018-05-12T05:29:09.418Z,11.33
2018-05-12T05:31:37.709Z,12.30
2018-05-12T05:34:06.045Z,11.47
2018-05-12T05:36:34.389Z,11.87
2018-05-12T05:39:02.704Z,12.87
2018-05-12T05:41:31.098Z,13.23
2018-05-12T05:43:59.440Z,12.57
2018-05-12T05:46:28.512Z,12.13
2018-05-12T05:48:56.849Z,13.93
2018-05-12T05:51:25.160Z,12.43
2018-05-12T05:53:53.524Z,13.47
2018-05-12T05:56:21.810Z,13.03
2018-05-12T05:58:50.155Z,13.90
2018-05-12T06:01:18.440Z,14.13
2018-05-12T06:03:46.764Z,13.30
2018-05-12T06:06:15.052Z,14.03
2018-05-12T06:08:44.151Z,14.67
2018-05-12T06:11:13.242Z,14.77
2018-05-12T06:13:41.544Z,14.93
2018-05-12T06:16:09.880Z,12.80
2018-05-12T06:18:38.184Z,13.93
2018-05-12T06:21:06.523Z,13.23
2018-05-12T06:23:34.819Z,11.97
2018-05-12T06:26:03.233Z,13.47
2018-05-12T06:28:31.591Z,13.57
2018-05-12T06:30:59.969Z,13.50
2018-05-12T06:33:29.177Z,12.47
2018-05-12T06:35:57.538Z,13.30
2018-05-12T06:38:25.894Z,15.27
2018-05-12T06:40:54.234Z,13.57
2018-05-12T06:43:23.349Z,15.43
2018-05-12T06:45:51.746Z,13.07
2018-05-12T06:48:20.098Z,13.90
2018-05-12T06:50:48.432Z,13.03
2018-05-12T06:53:16.719Z,13.77
2018-05-12T06:55:45.832Z,13.60
2018-05-12T06:58:14.133Z,12.97
2018-05-12T07:00:43.646Z,13.80
2018-05-12T07:03:12.007Z,12.40
2018-05-12T07:05:40.405Z,14.27
2018-05-12T07:08:10.687Z,14.87
2018-05-12T07:10:39.136Z,14.37
2018-05-12T07:13:07.494Z,14.37
2018-05-12T07:15:35.895Z,14.23
2018-05-12T07:18:05.109Z,14.47
2018-05-12T07:20:33.566Z,13.00
2018-05-12T07:23:01.920Z,13.73
2018-05-12T07:25:30.316Z,12.73
2018-05-12T07:27:59.436Z,12.53
2018-05-12T07:30:27.971Z,12.10
2018-05-12T07:32:56.314Z,12.17
2018-05-12T07:35:24.736Z,13.00
2018-05-12T07:37:53.087Z,13.13
2018-05-12T07:40:21.484Z,13.17
2018-05-12T07:42:49.911Z,12.03
2018-05-12T07:48:18.334Z,5.57
2018-05-12T07:50:48.417Z,7.27
2018-05-12T07:53:18.244Z,6.70
2018-05-12T07:55:48.084Z,8.30
2018-05-12T07:58:17.886Z,9.40
2018-05-12T08:00:47.725Z,9.27
2018-05-12T08:03:15.940Z,9.20
2018-05-12T08:05:44.444Z,7.97
2018-05-12T08:08:12.768Z,16.70
2018-05-12T08:10:41.159Z,13.77
2018-05-12T08:13:09.513Z,13.13
2018-05-12T08:15:37.836Z,12.60
2018-05-12T08:18:06.131Z,14.77
2018-05-12T08:20:35.229Z,15.20
2018-05-12T08:23:03.540Z,14.80
2018-05-12T08:25:32.629Z,16.53
2018-05-12T08:28:01.700Z,17.03
2018-05-12T08:30:30.029Z,16.43
2018-05-12T08:32:58.333Z,14.87
2018-05-12T08:35:26.672Z,14.50
2018-05-12T08:37:55.003Z,15.00
2018-05-12T08:40:23.413Z,14.80
2018-05-12T08:42:51.748Z,13.80
2018-05-12T08:45:20.109Z,13.43
2018-05-12T08:47:49.313Z,14.63
2018-05-12T08:50:17.652Z,15.30
2018-05-12T08:52:46.403Z,13.50
2018-05-12T08:55:15.205Z,13.63
2018-05-12T08:57:43.551Z,12.40
2018-05-12T09:00:11.964Z,11.27
2018-05-12T09:02:40.490Z,12.03
2018-05-12T09:05:08.903Z,11.97
2018-05-12T09:07:37.422Z,12.67
2018-05-12T09:10:06.732Z,9.67
2018-05-12T09:12:35.169Z,10.23
2018-05-12T09:15:03.521Z,9.80
2018-05-12T09:17:31.877Z,7.20
2018-05-12T09:20:00.292Z,7.47
2018-05-12T09:22:29.425Z,8.97
2018-05-12T09:24:57.853Z,9.80
2018-05-12T09:27:26.255Z,7.67
2018-05-12T09:29:55.180Z,8.27
2018-05-12T09:32:24.312Z,8.60
2018-05-12T09:34:52.655Z,9.60
2018-05-12T09:37:21.800Z,9.70
2018-05-12T09:39:50.153Z,9.07
2018-05-12T09:42:18.615Z,9.50
2018-05-12T09:44:46.860Z,11.17
2018-05-12T09:47:15.181Z,10.47
2018-05-12T09:49:43.493Z,9.90
2018-05-12T09:52:12.111Z,10.07
2018-05-12T09:54:40.413Z,8.80
2018-05-12T09:57:09.514Z,8.83
2018-05-12T09:59:37.929Z,8.97
2018-05-12T10:02:06.231Z,9.00
2018-05-12T10:04:34.580Z,9.90
2018-05-12T10:07:02.944Z,10.47
2018-05-12T10:09:31.362Z,10.20
2018-05-12T10:11:59.720Z,9.90
2018-05-12T10:14:28.094Z,11.03
2018-05-12T10:16:56.515Z,9.90
2018-05-12T10:19:24.894Z,8.33
2018-05-12T10:21:53.330Z,8.47
2018-05-12T10:24:21.680Z,7.90
2018-05-12T10:26:50.800Z,9.40
2018-05-12T10:29:19.112Z,7.10
2018-05-12T10:31:47.473Z,6.37
2018-05-12T10:34:15.840Z,6.90
2018-05-12T10:36:44.201Z,6.47
2018-05-12T10:39:12.610Z,7.13
2018-05-12T10:41:40.901Z,6.77
2018-05-12T10:44:09.340Z,6.60
2018-05-12T10:46:37.676Z,6.50
2018-05-12T10:49:06.028Z,7.20
2018-05-12T10:51:34.340Z,6.70
2018-05-12T10:54:02.656Z,7.00
2018-05-12T10:56:30.940Z,6.73
2018-05-12T10:58:59.306Z,5.90
2018-05-12T11:01:27.574Z,5.70
2018-05-12T11:03:56.678Z,6.17
2018-05-12T11:06:25.733Z,6.60
2018-05-12T11:08:54.154Z,6.13
2018-05-12T11:11:22.492Z,6.47
2018-05-12T11:13:50.866Z,6.67
2018-05-12T11:16:19.275Z,6.27
2018-05-12T11:18:48.404Z,5.43
2018-05-12T11:21:16.758Z,5.87
2018-05-12T11:23:45.852Z,5.27
2018-05-12T11:26:14.945Z,5.70
2018-05-12T11:28:44.110Z,5.17
2018-05-12T11:31:12.450Z,6.47
2018-05-12T11:33:40.798Z,5.00
2018-05-12T11:36:09.912Z,4.90
2018-05-12T11:38:38.370Z,5.53
2018-05-12T11:41:06.698Z,5.17
2018-05-12T11:43:35.142Z,5.40
2018-05-12T11:46:04.273Z,4.77
2018-05-12T11:48:37.986Z,5.23
2018-05-12T11:51:06.309Z,5.47
2018-05-12T11:53:35.492Z,5.47
2018-05-12T11:56:03.829Z,4.80
2018-05-12T11:58:32.187Z,5.13
2018-05-12T12:01:00.556Z,5.47
2018-05-12T12:03:29.001Z,6.20
2018-05-12T12:05:57.349Z,5.40
2018-05-12T12:08:25.703Z,6.03
2018-05-12T12:10:54.042Z,6.00
2018-05-12T12:13:23.188Z,5.47
2018-05-12T12:15:52.538Z,5.27
2018-05-12T12:18:20.941Z,5.60
2018-05-12T12:20:50.040Z,5.40
2018-05-12T12:23:19.123Z,5.10
2018-05-12T12:25:47.413Z,5.20
2018-05-12T12:28:16.499Z,5.43
2018-05-12T12:30:45.572Z,5.00
2018-05-12T12:33:13.925Z,5.43
2018-05-12T12:35:42.189Z,4.43
2018-05-12T12:38:10.480Z,4.53
2018-05-12T12:40:38.785Z,4.77
2018-05-12T12:43:07.068Z,4.50
2018-05-12T12:45:35.391Z,3.63
2018-05-12T12:48:03.693Z,3.87
2018-05-12T12:50:32.020Z,3.77
2018-05-12T12:53:00.321Z,3.93
2018-05-12T12:55:28.636Z,4.50
2018-05-12T12:57:56.922Z,4.30
2018-05-12T13:00:25.249Z,3.93
2018-05-12T13:02:53.545Z,4.37
2018-05-12T13:05:21.852Z,3.63
2018-05-12T13:07:50.145Z,3.97
2018-05-12T13:10:18.458Z,4.43
2018-05-12T13:12:46.747Z,4.30
2018-05-12T13:15:15.071Z,4.00
2018-05-12T13:17:43.361Z,3.50
2018-05-12T13:20:11.676Z,4.10
2018-05-12T13:22:39.960Z,4.27
2018-05-12T13:25:08.280Z,4.60
2018-05-12T13:27:36.564Z,4.50
2018-05-12T13:30:04.899Z,4.80
2018-05-12T13:32:33.176Z,4.20
2018-05-12T13:35:01.489Z,3.70
2018-05-12T13:37:29.780Z,3.93
2018-05-12T13:39:58.853Z,4.00
2018-05-12T13:42:27.137Z,3.50
2018-05-12T13:44:57.069Z,3.67
2018-05-12T13:47:26.107Z,3.47
2018-05-12T13:49:54.388Z,3.50
2018-05-12T13:52:22.709Z,3.47
2018-05-12T13:54:51.016Z,3.73
2018-05-12T13:57:19.356Z,3.47
2018-05-12T13:59:47.653Z,3.03
2018-05-12T14:02:16.709Z,3.07
2018-05-12T14:04:45.020Z,3.23
2018-05-12T14:07:13.329Z,2.90
2018-05-12T14:09:41.640Z,2.63
2018-05-12T14:12:09.923Z,2.80
2018-05-12T14:14:38.212Z,2.70
2018-05-12T14:17:06.524Z,3.33
2018-05-12T14:19:35.568Z,3.03
2018-05-12T14:22:03.881Z,3.00
2018-05-12T14:24:32.160Z,3.37
2018-05-12T14:27:01.231Z,2.40
2018-05-12T14:29:29.532Z,3.33
2018-05-12T14:34:33.218Z,2.73
2018-05-12T14:37:01.547Z,3.33
2018-05-12T14:39:29.844Z,3.37
2018-05-12T14:41:58.147Z,2.80
2018-05-12T14:44:26.428Z,2.80
2018-05-12T14:46:54.766Z,2.90
2018-05-12T14:49:23.051Z,2.53
2018-05-12T14:51:51.367Z,2.60
2018-05-12T14:54:19.651Z,3.20
2018-05-12T14:56:47.982Z,3.13
2018-05-12T14:59:16.326Z,3.00
2018-05-12T15:01:44.776Z,3.10
2018-05-12T15:04:13.110Z,3.33
2018-05-12T15:06:41.462Z,2.90
2018-05-12T15:09:10.540Z,3.10
2018-05-12T15:11:38.844Z,3.03
2018-05-12T15:14:07.143Z,2.97
2018-05-12T15:16:35.481Z,3.17
2018-05-12T15:19:03.763Z,3.00
2018-05-12T15:21:32.082Z,2.60
2018-05-12T15:24:00.356Z,2.63
2018-05-12T15:26:28.677Z,2.80
2018-05-12T15:28:56.963Z,3.00
2018-05-12T15:31:25.268Z,2.90
2018-05-12T15:33:53.559Z,3.00
2018-05-12T15:36:21.938Z,2.87
2018-05-12T15:38:50.261Z,3.10
2018-05-12T15:41:18.571Z,3.10
2018-05-12T15:43:47.836Z,3.17
2018-05-12T15:46:15.956Z,3.07
2018-05-12T15:48:44.239Z,3.13
2018-05-12T15:51:12.565Z,3.73
2018-05-12T15:53:40.848Z,3.13
2018-05-12T15:56:09.157Z,3.47
2018-05-12T15:58:37.461Z,3.20
2018-05-12T16:01:05.775Z,3.07
2018-05-12T16:03:34.084Z,3.33
2018-05-12T16:06:03.168Z,2.80
2018-05-12T16:08:31.460Z,3.23
2018-05-12T16:11:00.540Z,3.20
2018-05-12T16:13:28.828Z,3.40
2018-05-12T16:15:57.893Z,2.87
2018-05-12T16:18:26.200Z,2.90
2018-05-12T16:20:55.252Z,3.20
2018-05-12T16:23:23.607Z,3.13
2018-05-12T16:25:51.903Z,2.87
2018-05-12T16:28:20.228Z,2.50
2018-05-12T16:30:49.286Z,2.77
2018-05-12T16:33:17.625Z,3.47
2018-05-12T16:35:45.988Z,3.20
2018-05-12T16:38:14.263Z,3.13
2018-05-12T16:40:43.323Z,3.30
2018-05-12T16:43:11.653Z,2.77
2018-05-12T16:45:39.945Z,2.93
2018-05-12T16:48:08.262Z,2.80
2018-05-12T16:50:36.646Z,2.73
2018-05-12T16:53:05.674Z,2.53
2018-05-12T16:55:33.976Z,2.50
2018-05-12T16:58:02.276Z,2.60
2018-05-12T17:00:30.558Z,2.43
2018-05-12T17:02:58.872Z,2.33
2018-05-12T17:05:27.149Z,2.80
2018-05-12T17:07:55.455Z,2.50
2018-05-12T17:10:23.732Z,2.70
2018-05-12T17:12:52.046Z,2.97
2018-05-12T17:15:20.354Z,3.03
2018-05-12T17:17:49.438Z,2.57
2018-05-12T17:20:18.537Z,3.03
2018-05-12T17:22:46.819Z,3.07
2018-05-12T17:25:15.875Z,2.77
2018-05-12T17:27:44.188Z,2.67
2018-05-12T17:30:13.245Z,3.27
2018-05-12T17:32:41.558Z,2.60
2018-05-12T17:35:10.609Z,2.93
2018-05-12T17:37:38.936Z,3.10
2018-05-12T17:40:07.992Z,2.97
2018-05-12T17:42:36.298Z,3.23
2018-05-12T17:45:04.573Z,3.70
2018-05-12T17:47:32.892Z,3.70
2018-05-12T17:50:01.262Z,3.33
2018-05-12T17:52:29.527Z,3.40
2018-05-12T17:54:58.578Z,3.30
2018-05-12T17:57:26.883Z,3.80
2018-05-12T17:59:56.169Z,3.63
2018-05-12T18:02:24.476Z,3.40
2018-05-12T18:04:53.533Z,4.93
2018-05-12T18:07:21.823Z,3.47
2018-05-12T18:09:50.139Z,3.23
2018-05-12T18:12:18.456Z,2.70
2018-05-12T18:14:46.761Z,6.70
2018-05-12T18:17:15.120Z,5.57
2018-05-12T18:19:43.384Z,3.27
2018-05-12T18:22:11.664Z,3.33
2018-05-12T18:24:39.993Z,3.50
2018-05-12T18:27:08.276Z,3.80
2018-05-12T18:29:36.602Z,4.00
2018-05-12T18:32:04.877Z,3.60
2018-05-12T18:34:33.188Z,3.90
2018-05-12T18:37:01.483Z,3.60
2018-05-12T18:39:29.792Z,4.00
2018-05-12T18:41:58.080Z,3.77
2018-05-12T18:44:26.389Z,3.53
2018-05-12T18:46:55.440Z,3.43
2018-05-12T18:49:23.760Z,3.90
2018-05-12T18:51:52.036Z,3.57
2018-05-12T18:54:20.350Z,3.80
2018-05-12T18:56:48.637Z,3.80
2018-05-12T18:59:16.953Z,3.47
2018-05-12T19:01:45.229Z,3.80
2018-05-12T19:04:13.533Z,3.70
2018-05-12T19:06:41.845Z,5.13
2018-05-12T19:09:10.169Z,6.13
2018-05-12T19:11:38.449Z,4.77
2018-05-12T19:14:06.753Z,4.57
2018-05-12T19:16:35.037Z,4.60
2018-05-12T19:19:03.364Z,4.67
2018-05-12T19:21:31.668Z,4.43
2018-05-12T19:24:00.749Z,4.03
2018-05-12T19:26:29.032Z,3.77
2018-05-12T19:28:57.376Z,4.50
2018-05-12T19:31:26.434Z,3.77
2018-05-12T19:33:55.502Z,3.70
2018-05-12T19:36:23.781Z,4.23
2018-05-12T19:38:52.093Z,3.90
2018-05-12T19:41:20.376Z,4.40
2018-05-12T19:43:48.699Z,3.87
2018-05-12T19:46:17.021Z,4.30
2018-05-12T19:48:45.307Z,4.20
2018-05-12T19:51:13.616Z,4.00
2018-05-12T19:53:41.904Z,4.13
2018-05-12T19:56:10.234Z,4.43
2018-05-12T19:58:38.517Z,4.97
2018-05-12T20:01:06.826Z,6.00
2018-05-12T20:03:35.116Z,7.77
2018-05-12T20:06:03.423Z,6.17
2018-05-12T20:08:32.473Z,4.50
2018-05-12T20:11:00.794Z,4.10
2018-05-12T20:13:29.843Z,4.17
2018-05-12T20:15:58.174Z,4.10
2018-05-12T20:18:27.203Z,4.57
2018-05-12T20:20:55.525Z,4.70
2018-05-12T20:23:23.809Z,3.97
2018-05-12T20:25:52.892Z,4.53
2018-05-12T20:28:21.172Z,4.27
2018-05-12T20:30:49.496Z,4.10
2018-05-12T20:33:17.797Z,4.70
2018-05-12T20:35:46.096Z,4.63
2018-05-12T20:38:14.367Z,4.77
2018-05-12T20:40:42.709Z,4.87
2018-05-12T20:43:11.006Z,4.80
2018-05-12T20:45:39.320Z,4.60
2018-05-12T20:48:08.375Z,7.50
2018-05-12T20:50:36.698Z,5.47
2018-05-12T20:53:05.756Z,5.20
2018-05-12T20:55:34.056Z,4.83
2018-05-12T20:58:02.342Z,4.77
2018-05-12T21:00:31.420Z,4.90
2018-05-12T21:02:59.719Z,4.97
2018-05-12T21:05:28.793Z,5.00
2018-05-12T21:07:57.080Z,5.13
2018-05-12T21:10:25.396Z,5.57
2018-05-12T21:12:53.679Z,6.03
2018-05-12T21:15:21.984Z,6.63
2018-05-12T21:17:50.267Z,5.33
2018-05-12T21:20:18.573Z,5.73
2018-05-12T21:22:47.627Z,6.00
2018-05-12T21:25:15.916Z,5.73
2018-05-12T21:27:44.244Z,5.47
2018-05-12T21:30:12.536Z,6.20
2018-05-12T21:32:40.865Z,6.27
2018-05-12T21:35:10.079Z,7.03
2018-05-12T21:37:39.155Z,6.37
2018-05-12T21:40:07.434Z,6.20
2018-05-12T21:42:35.740Z,6.47
2018-05-12T21:45:04.045Z,6.43
2018-05-12T21:47:32.370Z,6.83
2018-05-12T21:50:00.648Z,7.00
2018-05-12T21:52:28.968Z,6.93
2018-05-12T21:54:57.276Z,6.97
2018-05-12T21:57:25.607Z,6.50
2018-05-12T21:59:53.896Z,6.53
2018-05-12T22:02:22.225Z,6.47
2018-05-12T22:04:50.517Z,6.20
2018-05-12T22:07:18.829Z,6.40
2018-05-12T22:09:47.115Z,6.50
2018-05-12T22:12:15.425Z,6.10
2018-05-12T22:14:43.744Z,5.93
2018-05-12T22:17:12.067Z,6.80
2018-05-12T22:19:41.112Z,6.50
2018-05-12T22:22:10.192Z,6.30
2018-05-12T22:24:39.259Z,7.13
2018-05-12T22:27:07.568Z,7.33
2018-05-12T22:29:36.628Z,7.40
2018-05-12T22:32:05.700Z,7.53
2018-05-12T22:34:33.983Z,8.20
2018-05-12T22:37:02.304Z,8.27
2018-05-12T22:39:30.597Z,8.80
2018-05-12T22:41:58.923Z,8.50
2018-05-12T22:44:27.212Z,8.57
2018-05-12T22:46:55.551Z,8.43
2018-05-12T22:49:23.852Z,7.60
2018-05-12T22:51:52.164Z,7.63
2018-05-12T22:54:20.446Z,8.27
2018-05-12T22:56:48.749Z,7.63
2018-05-12T22:59:17.050Z,8.23
2018-05-12T23:01:45.336Z,8.60
2018-05-12T23:04:13.645Z,8.77
2018-05-12T23:06:41.940Z,8.43
2018-05-12T23:09:11.021Z,7.70
2018-05-12T23:11:39.300Z,7.93
2018-05-12T23:14:07.605Z,7.60
2018-05-12T23:16:36.658Z,6.87
2018-05-12T23:19:04.973Z,6.40
2018-05-12T23:24:07.875Z,5.57
2018-05-12T23:26:36.161Z,5.40
2018-05-12T23:29:04.470Z,5.90
2018-05-12T23:31:32.772Z,5.60
2018-05-12T23:34:01.089Z,5.83
2018-05-12T23:36:30.141Z,6.00
2018-05-12T23:38:58.470Z,7.23
2018-05-12T23:41:26.771Z,6.20
2018-05-12T23:43:55.089Z,4.83
2018-05-12T23:46:23.395Z,4.97
2018-05-12T23:48:52.468Z,4.40
2018-05-12T23:51:20.832Z,4.33
2018-05-12T23:53:49.107Z,3.87
2018-05-12T23:56:17.392Z,3.40
2018-05-12T23:58:45.739Z,3.70
